createdAt,value
2018-09-15T00:03:43.676Z,5.32
2018-09-15T00:09:38.640Z,4.7
2018-09-15T00:15:33.650Z,4.83
2018-09-15T00:21:28.689Z,5.32
2018-09-15T00:27:23.675Z,5.02
2018-09-15T00:33:18.819Z,5.07
2018-09-15T00:39:13.662Z,4.91
2018-09-15T00:45:08.693Z,6.32
2018-09-15T00:51:04.602Z,5.85
2018-09-15T00:56:58.731Z,6.1
2018-09-15T01:02:53.732Z,5.5
2018-09-15T01:08:48.692Z,5.26
2018-09-15T01:14:43.748Z,4.81
2018-09-15T01:20:38.913Z,5.09
2018-09-15T01:26:33.729Z,6.13
2018-09-15T01:32:28.719Z,5.99
2018-09-15T01:38:23.767Z,5.45
2018-09-15T01:44:18.761Z,5.5
2018-09-15T01:50:13.790Z,5.09
2018-09-15T01:56:08.731Z,5.46
2018-09-15T02:02:03.754Z,4.9
2018-09-15T02:07:58.759Z,5.57
2018-09-15T02:13:53.763Z,5.15
2018-09-15T02:19:48.769Z,4.65
2018-09-15T02:25:43.773Z,5.49
2018-09-15T02:31:38.791Z,5.21
2018-09-15T02:37:33.804Z,4.85
2018-09-15T02:43:28.794Z,5.69
2018-09-15T02:49:23.808Z,5.73
2018-09-15T02:55:18.802Z,5.36
2018-09-15T03:01:13.803Z,5.54
2018-09-15T03:07:08.847Z,5.03
2018-09-15T03:13:03.813Z,6.23
2018-09-15T03:18:58.841Z,5.44
2018-09-15T03:24:53.881Z,5.7
2018-09-15T03:30:48.876Z,5.45
2018-09-15T03:36:43.886Z,5.83
2018-09-15T03:42:38.903Z,5.57
2018-09-15T03:48:33.886Z,5.57
2018-09-15T03:54:28.873Z,5.8
2018-09-15T04:00:23.878Z,6.12
2018-09-15T04:06:18.888Z,6.1
2018-09-15T04:12:13.881Z,5.75
2018-09-15T04:18:08.891Z,5.92
2018-09-15T04:24:03.885Z,5.82
2018-09-15T04:29:58.951Z,5.85
2018-09-15T04:35:53.929Z,5.67
2018-09-15T04:41:48.941Z,6.38
2018-09-15T04:47:43.943Z,5.2
2018-09-15T04:53:38.958Z,6.13
2018-09-15T04:59:33.919Z,5.88
2018-09-15T05:05:28.948Z,6.23
2018-09-15T05:11:23.940Z,6.02
2018-09-15T05:17:18.966Z,6.33
2018-09-15T05:23:13.971Z,5.99
2018-09-15T05:29:08.958Z,6.8
2018-09-15T05:35:03.962Z,6.2
2018-09-15T05:40:58.955Z,6.74
2018-09-15T05:46:53.987Z,6.24
2018-09-15T05:52:48.972Z,7.74
2018-09-15T05:58:43.969Z,8.43
2018-09-15T06:04:38.995Z,7.88
2018-09-15T06:10:34.000Z,7.21
2018-09-15T06:16:28.998Z,7.98
2018-09-15T06:22:24.008Z,8.23
2018-09-15T06:28:19.012Z,8.14
2018-09-15T06:34:14.027Z,8.15
2018-09-15T06:40:09.090Z,8.39
2018-09-15T06:46:04.053Z,8.7
2018-09-15T06:51:59.028Z,10.05
2018-09-15T06:57:54.074Z,9.3
2018-09-15T07:03:49.041Z,8.79
2018-09-15T07:09:44.076Z,9.3
2018-09-15T07:15:39.130Z,9.02
2018-09-15T07:21:34.059Z,9.2
2018-09-15T07:27:29.082Z,9.73
2018-09-15T07:33:24.091Z,8.9
2018-09-15T07:39:19.094Z,9.64
2018-09-15T07:45:14.125Z,8.55
2018-09-15T07:51:09.074Z,8.87
2018-09-15T07:57:04.121Z,8.96
2018-09-15T08:02:59.115Z,9.58
2018-09-15T08:08:54.173Z,9.6
2018-09-15T08:14:49.109Z,8.53
2018-09-15T08:20:44.216Z,8.64
2018-09-15T08:26:39.135Z,8.28
2018-09-15T08:32:34.129Z,7.97
2018-09-15T08:38:29.129Z,7.51
2018-09-15T08:44:24.159Z,8.07
2018-09-15T08:50:20.563Z,6.84
2018-09-15T08:56:14.202Z,7.39
2018-09-15T09:02:09.149Z,7.28
2018-09-15T09:08:04.174Z,7.19
2018-09-15T09:13:59.156Z,7.58
2018-09-15T09:19:54.603Z,7.13
2018-09-15T09:25:49.249Z,9.09
2018-09-15T09:31:44.188Z,6.97
2018-09-15T09:37:39.198Z,7.18
2018-09-15T09:43:34.479Z,6.57
2018-09-15T09:49:29.188Z,6.6
2018-09-15T09:55:24.238Z,7.83
2018-09-15T10:01:19.272Z,6.67
2018-09-15T10:07:14.287Z,7.57
2018-09-15T10:13:09.242Z,6.61
2018-09-15T10:19:04.254Z,6.44
2018-09-15T10:24:59.255Z,6.76
2018-09-15T10:30:54.254Z,6.87
2018-09-15T10:36:49.273Z,6.02
2018-09-15T10:42:44.265Z,6.44
2018-09-15T10:48:39.325Z,6.35
2018-09-15T10:54:34.264Z,6.56
2018-09-15T11:00:29.406Z,6.46
2018-09-15T11:06:24.283Z,6.47
2018-09-15T11:12:19.287Z,6.78
2018-09-15T11:18:14.289Z,6.85
2018-09-15T11:24:09.305Z,6.95
2018-09-15T11:30:04.561Z,7.38
2018-09-15T11:35:59.323Z,6.91
2018-09-15T11:41:54.326Z,6.26
2018-09-15T11:47:49.356Z,6.16
2018-09-15T11:53:44.413Z,6.88
2018-09-15T11:59:39.332Z,6.68
2018-09-15T12:05:34.347Z,7.36
2018-09-15T12:11:29.392Z,6.48
2018-09-15T12:17:24.349Z,6.13
2018-09-15T12:23:19.348Z,5.99
2018-09-15T12:29:14.406Z,6.41
2018-09-15T12:35:09.373Z,5.9
2018-09-15T12:41:04.390Z,6
2018-09-15T12:46:59.365Z,5.75
2018-09-15T12:52:54.382Z,6.56
2018-09-15T12:58:49.417Z,5.36
2018-09-15T13:04:48.496Z,6.02
2018-09-15T13:10:43.455Z,6.3
2018-09-15T13:16:38.535Z,5.69
2018-09-15T13:22:29.400Z,5.63
2018-09-15T13:28:28.525Z,6.15
2018-09-15T13:34:19.416Z,5.65
2018-09-15T13:40:14.466Z,5.38
2018-09-15T13:46:09.442Z,5.01
2018-09-15T13:52:08.513Z,5.14
2018-09-15T13:57:59.447Z,5.32
2018-09-15T14:03:54.514Z,5.07
2018-09-15T14:09:49.457Z,4.59
2018-09-15T14:15:44.464Z,4.83
2018-09-15T14:21:43.519Z,5.19
2018-09-15T14:27:34.534Z,4.67
2018-09-15T14:33:29.500Z,4.53
2018-09-15T14:39:24.561Z,4.99
2018-09-15T14:45:23.812Z,4.69
2018-09-15T14:51:14.519Z,4.73
2018-09-15T14:57:13.603Z,4.81
2018-09-15T15:03:08.603Z,5.06
2018-09-15T15:08:59.548Z,4.85
2018-09-15T15:14:58.701Z,4.85
2018-09-15T15:20:49.537Z,4.93
2018-09-15T15:26:44.540Z,4.36
2018-09-15T15:32:43.770Z,5.49
2018-09-15T15:38:34.588Z,5
2018-09-15T15:44:29.595Z,5.21
2018-09-15T15:50:24.578Z,5.29
2018-09-15T15:56:23.619Z,4.72
2018-09-15T16:02:14.620Z,4.95
2018-09-15T16:08:09.591Z,5.18
2018-09-15T16:14:04.637Z,4.75
2018-09-15T16:20:07.763Z,4.89
2018-09-15T16:25:54.610Z,5.43
2018-09-15T16:31:53.774Z,5.46
2018-09-15T16:37:48.748Z,5.52
2018-09-15T16:43:39.636Z,5
2018-09-15T16:49:38.808Z,5.46
2018-09-15T16:55:33.697Z,6.33
2018-09-15T17:01:29.681Z,9.82
2018-09-15T17:07:27.838Z,10.8
2018-09-15T17:13:18.818Z,15.71
2018-09-15T17:19:09.662Z,24.58
2018-09-15T17:25:08.959Z,33.94
2018-09-15T17:30:59.675Z,40.79
2018-09-15T17:36:54.713Z,47.8
2018-09-15T17:42:49.687Z,52.67
2018-09-15T17:48:44.698Z,40.53
2018-09-15T17:54:39.759Z,30.26
2018-09-15T18:00:34.754Z,37.54
2018-09-15T18:06:29.706Z,43.08
2018-09-15T18:12:24.716Z,29.32
2018-09-15T18:18:19.723Z,38.75
2018-09-15T18:24:14.729Z,36.43
2018-09-15T18:30:09.719Z,39.52
2018-09-15T18:36:04.816Z,33.16
2018-09-15T18:41:59.741Z,34.61
2018-09-15T18:47:58.819Z,33.18
2018-09-15T18:53:49.738Z,25.05
2018-09-15T18:59:44.795Z,27.45
2018-09-15T19:05:39.777Z,26.77
2018-09-15T19:11:34.752Z,18.91
